Time;durP1;ratioP1;P1;durP2;ratioP2;P2;SDS_P1;SDS_P2;PMS_P1;PMS_P2;Temp;Humidity;BMP_temperature;BMP_pressure;BME280_temperature;BME280_humidity;BME280_pressure;Samples;Min_cycle;Max_cycle;Signal;HPM_P1;HPM_P2
2023/11/08 00:02:09;;;;;;;2.83;0.60;;;;;;;;;;10268834;28;20055;-74
2023/11/08 00:07:12;;;;;;;1.08;0.70;;;;;;;;;;10240378;28;20042;-74
2023/11/08 00:12:17;;;;;;;1.70;0.65;;;;;;;;;;10266386;28;20752;-75
2023/11/08 00:17:22;;;;;;;3.05;1.33;;;;;;;;;;10242803;28;20066;-75
2023/11/08 00:22:25;;;;;;;3.63;0.90;;;;;;;;;;10241503;28;20390;-75
2023/11/08 00:27:28;;;;;;;1.77;0.85;;;;;;;;;;10251602;28;20069;-75
2023/11/08 00:32:33;;;;;;;2.63;0.73;;;;;;;;;;10254878;28;20050;-75
2023/11/08 00:37:37;;;;;;;1.63;0.40;;;;;;;;;;10266053;28;20101;-75
2023/11/08 00:42:40;;;;;;;3.20;1.00;;;;;;;;;;10272692;28;20057;-75
2023/11/08 00:47:44;;;;;;;1.70;0.80;;;;;;;;;;10268529;28;20051;-75
2023/11/08 00:52:51;;;;;;;2.17;0.70;;;;;;;;;;10255074;28;20549;-75
2023/11/08 00:57:54;;;;;;;0.73;0.60;;;;;;;;;;10254968;28;20055;-75
2023/11/08 01:02:59;;;;;;;0.95;0.55;;;;;;;;;;10251649;28;20054;-75
2023/11/08 01:08:02;;;;;;;3.35;1.15;;;;;;;;;;10259075;28;20122;-75
2023/11/08 01:13:06;;;;;;;1.58;0.60;;;;;;;;;;10256682;28;20078;-75
2023/11/08 01:18:11;;;;;;;2.55;1.10;;;;;;;;;;10259998;28;20062;-74
2023/11/08 01:23:15;;;;;;;3.40;1.05;;;;;;;;;;10273079;28;20057;-75
2023/11/08 01:28:19;;;;;;;2.50;0.90;;;;;;;;;;10251720;28;20058;-75
2023/11/08 01:33:24;;;;;;;4.68;1.50;;;;;;;;;;10275880;28;20046;-74
2023/11/08 01:38:27;;;;;;;2.95;1.20;;;;;;;;;;10257108;28;20143;-75
2023/11/08 01:43:32;;;;;;;2.92;1.20;;;;;;;;;;10245251;28;20117;-75
2023/11/08 01:48:36;;;;;;;1.95;0.88;;;;;;;;;;10207585;23;20162;-74
2023/11/08 01:53:41;;;;;;;6.70;0.90;;;;;;;;;;10180740;29;20043;-75
2023/11/08 01:58:45;;;;;;;2.67;0.68;;;;;;;;;;10181473;29;20046;-74
2023/11/08 02:03:53;;;;;;;1.42;0.82;;;;;;;;;;10167670;29;20122;-75
2023/11/08 02:08:56;;;;;;;1.30;0.90;;;;;;;;;;10177013;29;20063;-75
2023/11/08 02:14:01;;;;;;;5.68;1.63;;;;;;;;;;10189827;29;20040;-75
2023/11/08 02:19:06;;;;;;;3.40;1.02;;;;;;;;;;10159564;29;20158;-75
2023/11/08 02:24:20;;;;;;;4.95;1.33;;;;;;;;;;10172027;29;20048;-75
2023/11/08 02:29:24;;;;;;;2.30;1.05;;;;;;;;;;10171099;29;20071;-74
2023/11/08 02:34:28;;;;;;;2.67;0.85;;;;;;;;;;10169753;29;20066;-75
2023/11/08 02:39:33;;;;;;;2.72;0.80;;;;;;;;;;10163446;29;20139;-74
2023/11/08 02:44:36;;;;;;;0.70;0.60;;;;;;;;;;10175292;29;20091;-75
2023/11/08 02:49:40;;;;;;;2.92;0.70;;;;;;;;;;10170061;29;20413;-74
2023/11/08 02:54:44;;;;;;;4.72;1.08;;;;;;;;;;10175919;29;20045;-74
2023/11/08 02:59:48;;;;;;;3.03;1.35;;;;;;;;;;10168369;29;20051;-75
2023/11/08 03:04:51;;;;;;;4.90;1.63;;;;;;;;;;10184293;29;20067;-75
2023/11/08 03:09:56;;;;;;;3.95;1.10;;;;;;;;;;10187504;29;20051;-75
2023/11/08 03:14:59;;;;;;;6.03;1.85;;;;;;;;;;10161979;29;20081;-75
2023/11/08 03:20:03;;;;;;;3.85;0.90;;;;;;;;;;10173602;29;20052;-75
2023/11/08 03:25:11;;;;;;;9.43;1.58;;;;;;;;;;10180711;29;20051;-75
2023/11/08 03:30:16;;;;;;;3.05;1.23;;;;;;;;;;10190314;29;20114;-74
2023/11/08 03:35:19;;;;;;;3.53;0.90;;;;;;;;;;10177050;29;20498;-74
2023/11/08 03:40:26;;;;;;;3.55;1.10;;;;;;;;;;10153146;29;20417;-74
2023/11/08 03:45:29;;;;;;;3.10;1.17;;;;;;;;;;10175323;29;20048;-74
2023/11/08 03:50:33;;;;;;;5.32;1.65;;;;;;;;;;10185795;29;20437;-74
2023/11/08 03:55:38;;;;;;;2.42;1.08;;;;;;;;;;10183369;29;20552;-74
2023/11/08 04:00:41;;;;;;;4.33;1.17;;;;;;;;;;10171185;29;20060;-74
2023/11/08 04:05:45;;;;;;;1.95;0.93;;;;;;;;;;10181439;29;20062;-75
2023/11/08 04:10:49;;;;;;;3.63;1.10;;;;;;;;;;10171091;29;20047;-74
2023/11/08 04:15:52;;;;;;;2.13;1.00;;;;;;;;;;10184698;29;20039;-74
2023/11/08 04:20:56;;;;;;;2.15;0.80;;;;;;;;;;10235637;23;20157;-74
2023/11/08 04:26:00;;;;;;;3.92;1.17;;;;;;;;;;10265102;28;20057;-74
2023/11/08 04:31:04;;;;;;;4.40;0.82;;;;;;;;;;10257246;28;20054;-74
2023/11/08 04:36:09;;;;;;;3.80;1.17;;;;;;;;;;10263509;28;20077;-74
2023/11/08 04:41:16;;;;;;;3.25;1.02;;;;;;;;;;10273081;28;20043;-74
2023/11/08 04:46:19;;;;;;;1.77;0.90;;;;;;;;;;10265153;28;20141;-74
2023/11/08 04:51:23;;;;;;;1.70;1.02;;;;;;;;;;10271418;28;20049;-75
2023/11/08 04:56:28;;;;;;;2.40;1.10;;;;;;;;;;10271107;28;20047;-74
2023/11/08 05:01:31;;;;;;;2.97;1.10;;;;;;;;;;10260622;28;20538;-74
2023/11/08 05:06:34;;;;;;;2.53;0.75;;;;;;;;;;10270110;28;20043;-74
2023/11/08 05:11:39;;;;;;;1.58;0.93;;;;;;;;;;10268260;28;20145;-74
2023/11/08 05:16:42;;;;;;;1.42;0.88;;;;;;;;;;10253250;28;20082;-74
2023/11/08 05:21:48;;;;;;;4.53;1.17;;;;;;;;;;10269489;28;20069;-75
2023/11/08 05:26:53;;;;;;;3.35;1.20;;;;;;;;;;10264536;28;20135;-75
2023/11/08 05:31:56;;;;;;;3.28;1.50;;;;;;;;;;10255231;28;20521;-74
2023/11/08 05:36:59;;;;;;;1.65;0.80;;;;;;;;;;10269579;28;20372;-74
2023/11/08 05:42:05;;;;;;;3.65;0.93;;;;;;;;;;10263580;28;20047;-74
2023/11/08 05:47:08;;;;;;;2.20;0.90;;;;;;;;;;10240359;28;20227;-74
2023/11/08 05:52:11;;;;;;;2.50;1.05;;;;;;;;;;10271435;28;20141;-74
2023/11/08 05:57:16;;;;;;;2.20;1.00;;;;;;;;;;10260902;28;20035;-74
2023/11/08 06:02:20;;;;;;;4.15;0.93;;;;;;;;;;10270762;28;20212;-74
2023/11/08 06:07:24;;;;;;;4.35;1.38;;;;;;;;;;10272065;28;20043;-74
2023/11/08 06:12:29;;;;;;;4.47;1.17;;;;;;;;;;10263874;28;20057;-74
2023/11/08 06:17:32;;;;;;;3.88;1.23;;;;;;;;;;10281017;28;20057;-74
2023/11/08 06:22:36;;;;;;;1.65;0.70;;;;;;;;;;10268031;28;20043;-74
2023/11/08 06:27:40;;;;;;;2.13;0.80;;;;;;;;;;10263908;28;20059;-74
2023/11/08 06:32:44;;;;;;;4.40;1.40;;;;;;;;;;10254080;28;20078;-74
2023/11/08 06:37:47;;;;;;;1.40;0.90;;;;;;;;;;10269388;28;20134;-74
2023/11/08 06:42:51;;;;;;;2.17;0.80;;;;;;;;;;10249769;28;20047;-74
2023/11/08 06:47:55;;;;;;;1.35;0.68;;;;;;;;;;10269841;28;20136;-74
2023/11/08 06:52:59;;;;;;;2.03;0.70;;;;;;;;;;10255259;28;20043;-74
2023/11/08 06:58:04;;;;;;;1.33;0.73;;;;;;;;;;10263696;28;20504;-74
2023/11/08 07:03:09;;;;;;;2.83;0.80;;;;;;;;;;10268997;28;20524;-74
2023/11/08 07:08:12;;;;;;;3.78;0.90;;;;;;;;;;10265901;28;20047;-74
2023/11/08 07:13:17;;;;;;;2.22;1.00;;;;;;;;;;10260161;28;20056;-74
2023/11/08 07:18:20;;;;;;;1.73;0.93;;;;;;;;;;10264115;28;20071;-74
2023/11/08 07:23:24;;;;;;;3.40;0.98;;;;;;;;;;10273668;28;20091;-74
2023/11/08 07:28:28;;;;;;;2.00;0.70;;;;;;;;;;10269652;28;20054;-74
2023/11/08 07:33:33;;;;;;;2.42;0.90;;;;;;;;;;10269774;28;20504;-74
2023/11/08 07:38:37;;;;;;;1.80;0.90;;;;;;;;;;10265799;28;20050;-74
2023/11/08 07:43:41;;;;;;;1.83;0.70;;;;;;;;;;10258690;28;20059;-74
2023/11/08 07:48:45;;;;;;;1.08;0.63;;;;;;;;;;10247128;23;20053;-76
2023/11/08 07:53:49;;;;;;;2.75;0.95;;;;;;;;;;10227544;29;20047;-76
2023/11/08 07:58:54;;;;;;;1.27;0.68;;;;;;;;;;10224496;29;20055;-76
2023/11/08 08:03:57;;;;;;;1.23;0.70;;;;;;;;;;10211991;29;20126;-76
2023/11/08 08:09:00;;;;;;;2.00;0.80;;;;;;;;;;10193347;29;20467;-76
2023/11/08 08:14:05;;;;;;;2.90;0.77;;;;;;;;;;10219572;29;20490;-76
2023/11/08 08:19:08;;;;;;;2.40;0.90;;;;;;;;;;10220345;29;20063;-76
2023/11/08 08:24:12;;;;;;;2.35;1.13;;;;;;;;;;10222419;29;20054;-76
2023/11/08 08:29:18;;;;;;;3.22;0.80;;;;;;;;;;10211236;29;20603;-76
2023/11/08 08:34:21;;;;;;;3.42;1.17;;;;;;;;;;10223818;28;20063;-76
2023/11/08 08:39:27;;;;;;;2.35;1.05;;;;;;;;;;10219191;29;20063;-75
2023/11/08 08:44:32;;;;;;;1.45;0.80;;;;;;;;;;10219726;29;20078;-76
2023/11/08 08:49:35;;;;;;;3.10;1.13;;;;;;;;;;10228086;28;20059;-76
2023/11/08 08:54:38;;;;;;;2.22;0.80;;;;;;;;;;10213846;29;20129;-76
2023/11/08 08:59:43;;;;;;;1.88;0.88;;;;;;;;;;10224971;29;20055;-76
2023/11/08 09:04:46;;;;;;;2.47;1.25;;;;;;;;;;10218759;29;20058;-76
2023/11/08 09:09:50;;;;;;;4.05;1.38;;;;;;;;;;10229907;29;20051;-76
2023/11/08 09:14:54;;;;;;;1.17;0.80;;;;;;;;;;10232079;29;20063;-76
2023/11/08 09:19:58;;;;;;;0.55;0.50;;;;;;;;;;10229703;29;20528;-75
2023/11/08 09:25:03;;;;;;;1.15;0.60;;;;;;;;;;10226677;29;20060;-76
2023/11/08 09:30:09;;;;;;;2.60;0.68;;;;;;;;;;10219691;29;20868;-76
2023/11/08 09:35:12;;;;;;;3.47;0.70;;;;;;;;;;10232310;29;20055;-76
2023/11/08 09:40:16;;;;;;;1.40;0.73;;;;;;;;;;10225487;29;20074;-76
2023/11/08 09:45:26;;;;;;;3.22;0.70;;;;;;;;;;10226797;29;20048;-75
2023/11/08 09:50:31;;;;;;;1.58;0.75;;;;;;;;;;10235355;29;20490;-76
2023/11/08 09:55:34;;;;;;;1.98;0.40;;;;;;;;;;10236417;29;20584;-76
2023/11/08 10:00:40;;;;;;;4.93;1.08;;;;;;;;;;10218144;29;20062;-76
2023/11/08 10:05:46;;;;;;;;;;;;;;;;;;10232140;29;20050;-76
2023/11/08 10:10:51;;;;;;;2.70;0.82;;;;;;;;;;10217192;29;20009;-75
2023/11/08 10:15:57;;;;;;;2.30;0.80;;;;;;;;;;10221920;29;20082;-76
2023/11/08 10:21:07;;;;;;;0.90;0.50;;;;;;;;;;10210409;29;20081;-76
2023/11/08 10:26:14;;;;;;;2.08;0.60;;;;;;;;;;10221924;29;20401;-76
2023/11/08 10:31:32;;;;;;;2.38;0.70;;;;;;;;;;10227262;29;20051;-76
2023/11/08 10:36:37;;;;;;;1.10;0.60;;;;;;;;;;10227106;29;20058;-76
2023/11/08 10:41:42;;;;;;;3.25;0.80;;;;;;;;;;10225070;29;20054;-75
2023/11/08 10:46:56;;;;;;;3.10;0.90;;;;;;;;;;10222936;29;20052;-76
2023/11/08 10:52:01;;;;;;;2.90;0.80;;;;;;;;;;10227821;29;20056;-75
2023/11/08 10:57:07;;;;;;;4.88;0.98;;;;;;;;;;10224969;29;20082;-76
2023/11/08 11:02:24;;;;;;;3.97;0.85;;;;;;;;;;10226921;29;20073;-75
2023/11/08 11:07:30;;;;;;;1.52;0.60;;;;;;;;;;10219371;29;20062;-75
2023/11/08 11:12:41;;;;;;;1.57;0.50;;;;;;;;;;10212418;29;20066;-76
2023/11/08 11:17:51;;;;;;;2.13;0.90;;;;;;;;;;10214506;29;20135;-76
2023/11/08 11:22:55;;;;;;;1.52;0.75;;;;;;;;;;10231104;29;20047;-75
2023/11/08 11:27:58;;;;;;;1.83;0.73;;;;;;;;;;10196790;29;20521;-76
2023/11/08 11:33:04;;;;;;;2.75;0.90;;;;;;;;;;10230448;29;20728;-75
2023/11/08 11:38:27;;;;;;;0.55;0.40;;;;;;;;;;10216320;29;20053;-75
2023/11/08 11:43:40;;;;;;;2.65;0.80;;;;;;;;;;10222981;29;20062;-75
2023/11/08 11:48:44;;;;;;;2.25;0.90;;;;;;;;;;10210623;29;20058;-75
2023/11/08 11:53:48;;;;;;;2.33;0.98;;;;;;;;;;10226801;29;20418;-76
2023/11/08 11:58:51;;;;;;;2.20;0.80;;;;;;;;;;10223208;29;20044;-75
2023/11/08 12:03:58;;;;;;;2.53;0.50;;;;;;;;;;10231492;29;20133;-76
2023/11/08 12:09:03;;;;;;;1.90;0.60;;;;;;;;;;10229617;29;20079;-75
2023/11/08 12:14:07;;;;;;;0.57;0.57;;;;;;;;;;10216588;29;20052;-75
2023/11/08 12:19:14;;;;;;;1.02;0.65;;;;;;;;;;10228302;29;20082;-76
2023/11/08 12:24:18;;;;;;;2.33;0.85;;;;;;;;;;10220846;28;20047;-76
2023/11/08 12:29:21;;;;;;;2.40;0.80;;;;;;;;;;10241090;29;20061;-76
2023/11/08 12:34:27;;;;;;;0.60;0.40;;;;;;;;;;10243745;29;20062;-76
2023/11/08 12:39:30;;;;;;;1.50;0.73;;;;;;;;;;10226771;29;20058;-75
2023/11/08 12:44:46;;;;;;;0.80;0.40;;;;;;;;;;10239458;29;20086;-76
2023/11/08 12:49:51;;;;;;;1.50;0.70;;;;;;;;;;10235741;29;20075;-76
2023/11/08 12:54:58;;;;;;;0.93;0.52;;;;;;;;;;10229015;29;20824;-75
2023/11/08 13:00:01;;;;;;;1.63;0.60;;;;;;;;;;10221378;29;20139;-76
2023/11/08 13:05:10;;;;;;;2.08;0.43;;;;;;;;;;10209406;29;20142;-76
2023/11/08 13:10:14;;;;;;;2.72;0.70;;;;;;;;;;10216380;28;20054;-75
2023/11/08 13:15:17;;;;;;;2.35;0.80;;;;;;;;;;10208286;28;20138;-76
2023/11/08 13:20:23;;;;;;;1.73;0.82;;;;;;;;;;10213997;28;20486;-76
2023/11/08 13:25:26;;;;;;;2.27;0.80;;;;;;;;;;10214943;28;20140;-76
2023/11/08 13:30:29;;;;;;;2.33;0.80;;;;;;;;;;10217163;28;20058;-76
2023/11/08 13:35:35;;;;;;;1.40;0.70;;;;;;;;;;10219389;29;20091;-76
2023/11/08 13:40:38;;;;;;;3.55;1.00;;;;;;;;;;10216629;28;20060;-75
2023/11/08 13:45:41;;;;;;;1.85;0.68;;;;;;;;;;10226127;23;20604;-74
2023/11/08 13:50:46;;;;;;;0.75;0.63;;;;;;;;;;10233532;28;20131;-74
2023/11/08 13:55:50;;;;;;;1.20;0.52;;;;;;;;;;10221825;29;20047;-74
2023/11/08 14:00:53;;;;;;;1.20;0.40;;;;;;;;;;10226440;29;20055;-74
2023/11/08 14:05:58;;;;;;;1.00;0.45;;;;;;;;;;10225742;29;20212;-74
2023/11/08 14:11:01;;;;;;;1.15;0.43;;;;;;;;;;10236332;29;20134;-74
2023/11/08 14:16:05;;;;;;;0.50;0.50;;;;;;;;;;10235625;29;20051;-74
2023/11/08 14:21:11;;;;;;;0.60;0.47;;;;;;;;;;10233467;29;20106;-74
2023/11/08 14:26:14;;;;;;;1.65;0.85;;;;;;;;;;10226074;29;20066;-74
2023/11/08 14:31:17;;;;;;;2.17;0.60;;;;;;;;;;10228810;29;20055;-74
2023/11/08 14:36:22;;;;;;;1.80;0.32;;;;;;;;;;10226951;28;20055;-74
2023/11/08 14:41:25;;;;;;;0.98;0.40;;;;;;;;;;10224225;29;20051;-74
2023/11/08 14:46:29;;;;;;;3.13;0.50;;;;;;;;;;10220465;28;20121;-74
2023/11/08 14:51:33;;;;;;;0.93;0.40;;;;;;;;;;10222315;28;20515;-74
2023/11/08 14:56:37;;;;;;;3.17;0.50;;;;;;;;;;10222575;28;20090;-74
2023/11/08 15:01:40;;;;;;;0.57;0.30;;;;;;;;;;10203601;29;20054;-74
2023/11/08 15:06:45;;;;;;;0.47;0.30;;;;;;;;;;10218483;29;20043;-74
2023/11/08 15:11:50;;;;;;;0.63;0.30;;;;;;;;;;10239489;29;20067;-74
2023/11/08 15:16:54;;;;;;;1.48;0.50;;;;;;;;;;10226678;29;20055;-76
2023/11/08 15:21:59;;;;;;;2.05;0.57;;;;;;;;;;10227669;29;20049;-75
2023/11/08 15:27:02;;;;;;;2.03;0.50;;;;;;;;;;10221878;29;20488;-75
2023/11/08 15:32:09;;;;;;;1.00;0.50;;;;;;;;;;10220819;29;20406;-74
2023/11/08 15:37:15;;;;;;;0.63;0.32;;;;;;;;;;10213670;29;20074;-74
2023/11/08 15:42:19;;;;;;;1.05;0.40;;;;;;;;;;10220832;29;20593;-74
2023/11/08 15:47:22;;;;;;;1.23;0.70;;;;;;;;;;10206683;29;20039;-74
2023/11/08 15:52:27;;;;;;;1.10;0.63;;;;;;;;;;10218171;29;20133;-74
2023/11/08 15:57:30;;;;;;;1.38;0.80;;;;;;;;;;10222901;28;20666;-74
2023/11/08 16:02:33;;;;;;;1.27;0.80;;;;;;;;;;10222488;28;20059;-74
2023/11/08 16:07:39;;;;;;;3.75;0.50;;;;;;;;;;10216375;28;20052;-74
2023/11/08 16:12:42;;;;;;;4.72;1.23;;;;;;;;;;10223498;28;20460;-74
2023/11/08 16:17:46;;;;;;;1.95;0.70;;;;;;;;;;10228537;28;20516;-74
2023/11/08 16:22:50;;;;;;;0.88;0.60;;;;;;;;;;10226889;29;20501;-74
2023/11/08 16:27:57;;;;;;;2.28;1.00;;;;;;;;;;10226380;29;20439;-74
2023/11/08 16:33:01;;;;;;;1.60;1.27;;;;;;;;;;10228787;29;20051;-74
2023/11/08 16:38:07;;;;;;;3.03;1.20;;;;;;;;;;10233218;29;20135;-74
2023/11/08 16:43:10;;;;;;;1.27;0.90;;;;;;;;;;10231307;29;20039;-74
2023/11/08 16:48:13;;;;;;;2.00;1.00;;;;;;;;;;10229109;29;20043;-74
2023/11/08 16:53:18;;;;;;;2.83;1.13;;;;;;;;;;10232824;29;20048;-74
2023/11/08 16:58:21;;;;;;;2.15;1.02;;;;;;;;;;10218500;29;20055;-74
2023/11/08 17:03:25;;;;;;;1.38;0.80;;;;;;;;;;10227473;29;20059;-74
2023/11/08 17:08:30;;;;;;;1.20;0.90;;;;;;;;;;10230239;29;20062;-74
2023/11/08 17:13:34;;;;;;;1.90;1.50;;;;;;;;;;10233384;29;20074;-74
2023/11/08 17:18:37;;;;;;;3.95;1.90;;;;;;;;;;10219406;29;20537;-74
2023/11/08 17:23:44;;;;;;;1.75;1.25;;;;;;;;;;10231773;29;20047;-74
2023/11/08 17:28:49;;;;;;;0.73;0.65;;;;;;;;;;10213086;28;20050;-74
2023/11/08 17:33:52;;;;;;;1.60;1.00;;;;;;;;;;10239812;28;20070;-74
2023/11/08 17:38:57;;;;;;;2.20;1.10;;;;;;;;;;10235490;28;20099;-74
2023/11/08 17:44:01;;;;;;;1.73;1.13;;;;;;;;;;10234157;28;20505;-74
2023/11/08 17:49:05;;;;;;;2.97;1.00;;;;;;;;;;10233747;28;20040;-74
2023/11/08 17:54:10;;;;;;;1.95;0.90;;;;;;;;;;10231451;29;20135;-74
2023/11/08 17:59:14;;;;;;;2.40;1.60;;;;;;;;;;10237279;29;20044;-74
2023/11/08 18:04:17;;;;;;;1.48;0.82;;;;;;;;;;10238253;29;20750;-74
2023/11/08 18:09:22;;;;;;;1.05;0.90;;;;;;;;;;10233649;29;20054;-74
2023/11/08 18:14:26;;;;;;;0.82;0.68;;;;;;;;;;10214401;29;20059;-74
2023/11/08 18:19:29;;;;;;;1.52;0.90;;;;;;;;;;10217564;29;20051;-74
2023/11/08 18:24:38;;;;;;;1.25;0.85;;;;;;;;;;10218835;29;20165;-74
2023/11/08 18:29:41;;;;;;;6.63;1.27;;;;;;;;;;10229272;29;20050;-74
2023/11/08 18:41:46;;;;;;;1.80;0.88;;;;;;;;;;10082272;29;20423;-72
2023/11/08 18:46:49;;;;;;;2.73;0.90;;;;;;;;;;10151800;29;20416;-73
2023/11/08 18:51:53;;;;;;;0.80;0.70;;;;;;;;;;10267065;23;20048;-74
2023/11/08 18:56:57;;;;;;;1.30;0.77;;;;;;;;;;10216655;29;20057;-76
2023/11/08 19:02:00;;;;;;;0.55;0.52;;;;;;;;;;10204940;29;20105;-75
2023/11/08 19:07:04;;;;;;;3.63;1.10;;;;;;;;;;10237293;28;20050;-75
2023/11/08 19:12:09;;;;;;;1.25;0.70;;;;;;;;;;10205441;29;20055;-76
2023/11/08 19:17:12;;;;;;;1.75;0.80;;;;;;;;;;10212554;29;20058;-75
2023/11/08 19:22:16;;;;;;;0.93;0.68;;;;;;;;;;10227297;29;20047;-76
2023/11/08 19:27:21;;;;;;;1.60;0.80;;;;;;;;;;10193083;29;20058;-76
2023/11/08 19:32:24;;;;;;;1.33;0.90;;;;;;;;;;10211099;29;20087;-76
2023/11/08 19:37:28;;;;;;;0.90;0.80;;;;;;;;;;10223052;29;20051;-75
2023/11/08 19:42:33;;;;;;;1.10;0.70;;;;;;;;;;10222004;29;20085;-76
2023/11/08 19:47:36;;;;;;;1.50;1.00;;;;;;;;;;10221722;29;20068;-76
2023/11/08 19:52:39;;;;;;;1.20;0.80;;;;;;;;;;10205170;29;20051;-76
2023/11/08 19:57:44;;;;;;;1.50;0.95;;;;;;;;;;10211779;29;20043;-76
2023/11/08 20:02:47;;;;;;;0.73;0.65;;;;;;;;;;10216681;29;20110;-76
2023/11/08 20:07:51;;;;;;;0.93;0.85;;;;;;;;;;10215555;29;20429;-76
2023/11/08 20:12:57;;;;;;;0.82;0.80;;;;;;;;;;10204564;29;20064;-76
2023/11/08 20:18:01;;;;;;;1.83;1.00;;;;;;;;;;10209006;29;20143;-76
2023/11/08 20:23:06;;;;;;;1.00;0.80;;;;;;;;;;10216475;29;20073;-76
2023/11/08 20:28:10;;;;;;;1.40;0.90;;;;;;;;;;10200251;29;20053;-76
2023/11/08 20:33:13;;;;;;;1.20;0.82;;;;;;;;;;10217560;28;20732;-76
2023/11/08 20:38:17;;;;;;;1.92;0.90;;;;;;;;;;10229179;29;20654;-76
2023/11/08 20:43:24;;;;;;;1.53;0.70;;;;;;;;;;10208127;29;20062;-75
2023/11/08 20:48:27;;;;;;;1.65;1.02;;;;;;;;;;10213217;28;20071;-75
2023/11/08 20:53:31;;;;;;;1.55;0.90;;;;;;;;;;10217607;29;20043;-76
2023/11/08 20:58:36;;;;;;;2.15;0.90;;;;;;;;;;10218415;29;20503;-75
2023/11/08 21:03:39;;;;;;;1.98;0.85;;;;;;;;;;10225664;29;20051;-76
2023/11/08 21:08:42;;;;;;;3.10;1.00;;;;;;;;;;10227266;29;20066;-76
2023/11/08 21:13:49;;;;;;;2.17;1.23;;;;;;;;;;10239488;29;20056;-76
2023/11/08 21:18:53;;;;;;;2.45;1.20;;;;;;;;;;10227756;29;20059;-76
2023/11/08 21:23:57;;;;;;;2.85;1.48;;;;;;;;;;10243033;29;20044;-76
2023/11/08 21:29:03;;;;;;;4.25;1.58;;;;;;;;;;10200060;29;20047;-76
2023/11/08 21:34:06;;;;;;;2.97;1.52;;;;;;;;;;10191655;29;20049;-76
2023/11/08 21:39:10;;;;;;;2.75;1.10;;;;;;;;;;10202621;29;20115;-76
2023/11/08 21:44:15;;;;;;;1.65;1.00;;;;;;;;;;10212920;28;20047;-76
2023/11/08 21:49:20;;;;;;;1.40;0.80;;;;;;;;;;10231744;28;20393;-76
2023/11/08 21:54:24;;;;;;;1.52;0.88;;;;;;;;;;10233949;29;20170;-76
2023/11/08 21:59:29;;;;;;;0.55;0.55;;;;;;;;;;10233868;28;20050;-76
2023/11/08 22:04:33;;;;;;;2.00;0.75;;;;;;;;;;10231675;29;20571;-76
2023/11/08 22:09:38;;;;;;;1.23;0.88;;;;;;;;;;10229586;29;20097;-76
2023/11/08 22:14:42;;;;;;;0.98;0.70;;;;;;;;;;10234866;29;20548;-76
2023/11/08 22:19:45;;;;;;;1.58;0.90;;;;;;;;;;10225430;29;20072;-76
2023/11/08 22:24:49;;;;;;;1.88;0.90;;;;;;;;;;10222474;29;20559;-76
2023/11/08 22:29:53;;;;;;;1.05;0.95;;;;;;;;;;10236479;29;20052;-76
2023/11/08 22:34:56;;;;;;;3.78;0.80;;;;;;;;;;10227432;29;20054;-76
2023/11/08 22:40:00;;;;;;;2.10;0.90;;;;;;;;;;10231294;29;20048;-76
2023/11/08 22:45:06;;;;;;;1.65;0.85;;;;;;;;;;10232865;29;20051;-76
2023/11/08 22:50:10;;;;;;;1.47;0.80;;;;;;;;;;10221614;29;20045;-76
2023/11/08 22:55:13;;;;;;;3.00;1.00;;;;;;;;;;10215003;29;20046;-76
2023/11/08 23:00:19;;;;;;;5.43;1.23;;;;;;;;;;10207358;29;20150;-76
2023/11/08 23:05:23;;;;;;;1.27;0.93;;;;;;;;;;10232010;29;20070;-76
2023/11/08 23:10:26;;;;;;;3.25;1.23;;;;;;;;;;10229281;28;20067;-76
2023/11/08 23:15:31;;;;;;;0.98;0.80;;;;;;;;;;10209091;29;20059;-76
2023/11/08 23:20:34;;;;;;;1.85;0.93;;;;;;;;;;10219793;29;20058;-76
2023/11/08 23:25:38;;;;;;;1.23;0.80;;;;;;;;;;10223779;29;20067;-76
2023/11/08 23:30:43;;;;;;;1.27;0.70;;;;;;;;;;10229147;29;20051;-76
2023/11/08 23:35:46;;;;;;;1.48;0.68;;;;;;;;;;10223169;29;20081;-76
2023/11/08 23:40:51;;;;;;;1.42;1.05;;;;;;;;;;10226270;29;20059;-76
2023/11/08 23:45:55;;;;;;;1.00;0.82;;;;;;;;;;10223712;29;20047;-76
2023/11/08 23:50:58;;;;;;;0.93;0.80;;;;;;;;;;10200887;29;20448;-76
2023/11/08 23:56:02;;;;;;;1.00;0.60;;;;;;;;;;10209951;29;20044;-76
